Quechee, Vermont
Current Conditions -  °F | °C
As of 1:53 PM on Wednesday 26 Nov 2014 (Local Time) from KLEB Reporting Station
Moderate Snow Moderate Snow  
Wind Chill: 27°   Ceiling: 300
Heat Index: 32°   Visibility: 0.5mi
Dew Point: 30°   Wind: 5mph
Humidity: 92%   Direction: 10°N
Pressure: 30.12"   Gusts: NA
Location:  43.65°N, 72.42°W
Report Text: KLEB 261853Z 01004KT 1/2SM SN FG OVC003 00/M01 A3012 RMK AO2 SLP208 P0008 T00001011
Loading
Personal Weather Stations






























Interactive Weather Map New forecast layout! Learn more

10-Day Weather Forecast

Advertisements
Track Severe Weather on mobile